Carlsbad, Texas
Current Conditions -  °F | °C
As of 7:51 PM on Tuesday 21 Oct 2014 (Local Time) from KSJT Reporting Station
Scattered Clouds Scattered Clouds  
Wind Chill: 73°   Ceiling: Unl
Heat Index: 73°   Visibility: 10mi
Dew Point: 53°   Wind: 5mph
Humidity: 49%   Direction: 90°E
Pressure: 30.03"   Gusts: NA
Location:  31.61°N, 100.64°W
Report Text: KSJT 220051Z 09004KT 10SM SCT075 23/12 A3003 RMK AO2 SLP155 T02280117
Loading
Personal Weather Stations






























Interactive Weather Map New forecast layout! Learn more

10-Day Weather Forecast

Advertisements
Track Severe Weather on mobile